Time;durP1;ratioP1;P1;durP2;ratioP2;P2;SDS_P1;SDS_P2;PMS_P1;PMS_P2;Temp;Humidity;BMP_temperature;BMP_pressure;BME280_temperature;BME280_humidity;BME280_pressure;Samples;Min_cycle;Max_cycle;Signal;HPM_P1;HPM_P2
2022/09/17 00:00:24;;;;;;;14.93;3.05;;;11.60;99.90;;;;;;5057090;28;20049;-66
2022/09/17 00:02:54;;;;;;;22.08;4.13;;;11.70;99.90;;;;;;5057974;28;20052;-67
2022/09/17 00:05:23;;;;;;;21.25;3.80;;;11.70;99.90;;;;;;5058674;28;20047;-65
2022/09/17 00:07:52;;;;;;;14.27;2.65;;;11.70;99.90;;;;;;5065456;28;20493;-65
2022/09/17 00:10:19;;;;;;;14.27;2.60;;;11.70;99.90;;;;;;5068104;28;20040;-67
2022/09/17 00:12:46;;;;;;;17.90;2.97;;;11.70;99.90;;;;;;5065287;28;20056;-65
2022/09/17 00:15:12;;;;;;;15.75;3.30;;;12.00;99.90;;;;;;5052429;28;20044;-65
2022/09/17 00:17:39;;;;;;;19.92;3.42;;;11.70;99.90;;;;;;5067624;28;20068;-65
2022/09/17 00:20:09;;;;;;;14.85;3.05;;;11.70;99.90;;;;;;5059108;28;20088;-65
2022/09/17 00:22:35;;;;;;;13.73;2.90;;;11.70;99.90;;;;;;5057742;28;20102;-65
2022/09/17 00:25:01;;;;;;;13.95;3.00;;;11.90;99.90;;;;;;5052815;28;20459;-65
2022/09/17 00:27:26;;;;;;;17.77;2.90;;;11.70;99.90;;;;;;5062760;28;20076;-65
2022/09/17 00:29:52;;;;;;;14.90;3.03;;;11.60;99.90;;;;;;5049236;28;20102;-64
2022/09/17 00:32:17;;;;;;;15.18;2.95;;;11.60;99.90;;;;;;5065818;28;20036;-65
2022/09/17 00:34:43;;;;;;;15.90;2.40;;;11.80;99.90;;;;;;5050732;28;20048;-67
2022/09/17 00:37:09;;;;;;;12.65;2.45;;;11.60;99.90;;;;;;5059782;28;20437;-65
2022/09/17 00:39:34;;;;;;;12.82;2.03;;;11.60;99.90;;;;;;5053841;28;20063;-65
2022/09/17 00:42:04;;;;;;;17.38;2.83;;;11.60;99.90;;;;;;5057317;28;20066;-65
2022/09/17 00:44:50;;;;;;;11.63;2.65;;;11.70;99.90;;;;;;5058804;28;20071;-66
2022/09/17 00:47:40;;;;;;;15.77;2.95;;;11.60;99.90;;;;;;5050654;28;20045;-66
2022/09/17 00:50:06;;;;;;;13.15;2.45;;;11.60;99.90;;;;;;5050835;28;20157;-66
2022/09/17 00:52:44;;;;;;;17.05;2.72;;;11.50;99.90;;;;;;5041961;28;20124;-66
2022/09/17 00:55:27;;;;;;;13.40;2.53;;;11.50;99.90;;;;;;5056836;28;20036;-65
2022/09/17 00:57:57;;;;;;;16.27;2.72;;;11.60;99.90;;;;;;5053079;28;20048;-65
2022/09/17 01:00:24;;;;;;;16.23;2.38;;;11.50;99.90;;;;;;5063341;28;20101;-65
2022/09/17 01:02:52;;;;;;;13.90;2.63;;;11.40;99.90;;;;;;5048939;28;20088;-65
2022/09/17 01:05:23;;;;;;;15.63;2.75;;;11.40;99.90;;;;;;5064362;28;20076;-65
2022/09/17 01:08:05;;;;;;;11.90;2.80;;;11.50;99.90;;;;;;5062166;28;20431;-66
2022/09/17 01:11:09;;;;;;;11.30;2.50;;;11.40;99.90;;;;;;5064934;28;20098;-65
2022/09/17 01:14:11;;;;;;;18.92;3.15;;;11.40;99.90;;;;;;5061412;28;20057;-65
2022/09/17 01:16:57;;;;;;;15.23;2.97;;;11.40;99.90;;;;;;5053259;28;20429;-66
2022/09/17 01:20:05;;;;;;;15.70;2.75;;;11.30;99.90;;;;;;5067048;28;20060;-65
2022/09/17 01:22:53;;;;;;;16.73;2.47;;;11.30;99.90;;;;;;5047695;28;20048;-66
2022/09/17 01:25:23;;;;;;;14.85;2.58;;;11.30;99.90;;;;;;5060520;28;20051;-66
2022/09/17 01:28:23;;;;;;;17.70;3.05;;;11.20;99.90;;;;;;5055030;28;20051;-66
2022/09/17 01:31:23;;;;;;;14.88;2.72;;;11.30;99.90;;;;;;5051710;28;20049;-65
2022/09/17 01:34:19;;;;;;;13.13;2.88;;;11.30;99.90;;;;;;5028943;28;20289;-66
2022/09/17 01:36:51;;;;;;;15.00;3.22;;;11.20;99.90;;;;;;5066215;28;20044;-66
2022/09/17 01:39:41;;;;;;;13.13;2.50;;;11.20;99.90;;;;;;5053442;28;20049;-66
2022/09/17 01:42:25;;;;;;;13.52;2.55;;;11.20;99.90;;;;;;5064502;28;20049;-66
2022/09/17 01:44:59;;;;;;;15.63;2.70;;;11.20;99.90;;;;;;5052206;28;20425;-66
2022/09/17 01:47:38;;;;;;;17.55;3.08;;;11.20;99.90;;;;;;5058247;28;20439;-66
2022/09/17 01:50:09;;;;;;;14.73;2.58;;;11.20;99.90;;;;;;5058681;28;20040;-64
2022/09/17 01:52:38;;;;;;;14.25;2.83;;;11.10;99.90;;;;;;5050517;28;20072;-65
2022/09/17 01:55:08;;;;;;;12.65;2.25;;;11.10;99.90;;;;;;5063601;28;20169;-66
2022/09/17 01:57:59;;;;;;;15.02;2.83;;;11.10;99.90;;;;;;5051881;28;20044;-66
2022/09/17 02:00:26;;;;;;;15.40;2.85;;;11.10;99.90;;;;;;5070513;28;20075;-64
2022/09/17 02:03:38;;;;;;;13.68;2.63;;;11.10;99.90;;;;;;5060143;28;20040;-66
2022/09/17 02:06:10;;;;;;;11.30;2.20;;;11.20;99.90;;;;;;5041977;28;20045;-66
2022/09/17 02:08:45;;;;;;;13.05;2.78;;;11.10;99.90;;;;;;5009787;28;20134;-65
2022/09/17 02:11:16;;;;;;;14.50;2.55;;;11.10;99.90;;;;;;5047990;28;20453;-65
2022/09/17 02:13:44;;;;;;;14.35;2.72;;;11.00;99.90;;;;;;5061287;28;20088;-65
2022/09/17 02:16:16;;;;;;;15.20;2.97;;;11.20;99.90;;;;;;5061358;28;20076;-65
2022/09/17 02:19:11;;;;;;;18.05;3.03;;;11.00;99.90;;;;;;5056197;28;20079;-65
2022/09/17 02:21:52;;;;;;;18.13;2.88;;;10.90;99.90;;;;;;5049699;28;20542;-65
2022/09/17 02:24:24;;;;;;;13.63;2.40;;;10.90;99.90;;;;;;5056262;28;20044;-66
2022/09/17 02:26:58;;;;;;;16.25;2.65;;;10.80;99.90;;;;;;5070358;28;20040;-66
2022/09/17 02:29:31;;;;;;;10.32;2.60;;;10.70;99.90;;;;;;5057783;28;20102;-66
2022/09/17 02:31:57;;;;;;;18.30;3.10;;;10.90;99.90;;;;;;5065122;28;20048;-66
2022/09/17 02:34:24;;;;;;;12.73;3.08;;;10.70;99.90;;;;;;5052746;28;20654;-66
2022/09/17 02:36:51;;;;;;;16.00;2.90;;;10.70;99.90;;;;;;5068164;28;20647;-66
2022/09/17 02:39:17;;;;;;;17.55;3.00;;;10.70;99.90;;;;;;5053151;28;20047;-66
2022/09/17 02:41:51;;;;;;;15.80;2.70;;;10.60;99.90;;;;;;5063829;28;20499;-67
2022/09/17 02:44:23;;;;;;;13.73;2.83;;;10.60;99.90;;;;;;5057955;28;20131;-67
2022/09/17 02:46:54;;;;;;;11.57;2.38;;;10.60;99.90;;;;;;5058267;28;20045;-67
2022/09/17 02:49:57;;;;;;;16.70;3.20;;;10.40;99.90;;;;;;5064337;28;20053;-67
2022/09/17 02:52:31;;;;;;;14.30;2.58;;;10.50;99.90;;;;;;5068017;28;20076;-64
2022/09/17 02:55:11;;;;;;;13.95;2.90;;;10.40;99.90;;;;;;5069551;28;20044;-67
2022/09/17 02:57:44;;;;;;;19.05;3.28;;;10.40;99.90;;;;;;5058079;28;20049;-67
2022/09/17 03:00:14;;;;;;;14.15;3.22;;;10.30;99.90;;;;;;5063214;28;20044;-67
2022/09/17 03:03:03;;;;;;;15.98;2.90;;;10.30;99.90;;;;;;5052953;28;20087;-67
2022/09/17 03:05:29;;;;;;;16.38;3.35;;;10.20;99.90;;;;;;5053522;28;20044;-65
2022/09/17 03:07:57;;;;;;;16.10;2.97;;;10.10;99.90;;;;;;5059133;28;20390;-67
2022/09/17 03:10:24;;;;;;;16.25;2.97;;;10.60;99.90;;;;;;5067566;28;20135;-65
2022/09/17 03:12:52;;;;;;;15.70;2.88;;;10.20;99.90;;;;;;5058566;28;20048;-67
2022/09/17 03:15:18;;;;;;;17.13;3.03;;;10.20;99.90;;;;;;5062105;28;20110;-66
2022/09/17 03:17:43;;;;;;;14.43;2.60;;;10.20;99.90;;;;;;5054900;28;20049;-67
2022/09/17 03:20:09;;;;;;;14.85;2.63;;;10.70;99.90;;;;;;5065310;28;20072;-67
2022/09/17 03:22:35;;;;;;;13.70;2.58;;;10.30;99.90;;;;;;5048455;28;20033;-65
2022/09/17 03:25:00;;;;;;;14.60;2.50;;;10.40;99.90;;;;;;5066637;28;20454;-65
2022/09/17 03:27:26;;;;;;;19.42;3.55;;;10.40;99.90;;;;;;5052842;28;20049;-65
2022/09/17 03:29:52;;;;;;;13.20;2.50;;;10.50;99.90;;;;;;5061711;28;20037;-66
2022/09/17 03:32:17;;;;;;;13.18;2.50;;;10.50;99.90;;;;;;5057239;28;20391;-66
2022/09/17 03:34:43;;;;;;;15.30;3.08;;;10.50;99.90;;;;;;5058422;28;20122;-66
2022/09/17 03:37:09;;;;;;;13.13;2.75;;;10.50;99.90;;;;;;5060611;28;20048;-65
2022/09/17 03:39:35;;;;;;;13.43;2.45;;;10.60;99.90;;;;;;5053599;28;20041;-66
2022/09/17 03:42:00;;;;;;;13.27;2.42;;;10.60;99.90;;;;;;5065287;28;20048;-66
2022/09/17 03:44:26;;;;;;;12.07;3.15;;;10.60;99.90;;;;;;5050502;28;20091;-66
2022/09/17 03:46:51;;;;;;;14.93;2.88;;;10.70;99.90;;;;;;5066056;28;20746;-66
2022/09/17 03:49:17;;;;;;;13.57;2.42;;;10.80;99.90;;;;;;5052912;28;20402;-66
2022/09/17 03:51:43;;;;;;;13.70;2.42;;;10.70;99.90;;;;;;5060454;28;20059;-65
2022/09/17 03:54:08;;;;;;;10.10;2.30;;;10.70;99.90;;;;;;5057094;28;20101;-66
2022/09/17 03:56:34;;;;;;;19.23;2.75;;;10.60;99.90;;;;;;5057388;28;20154;-66
2022/09/17 03:59:00;;;;;;;10.85;2.20;;;10.70;99.90;;;;;;5060282;28;20040;-65
2022/09/17 04:01:27;;;;;;;11.80;2.47;;;10.50;99.90;;;;;;5053549;28;20045;-66
2022/09/17 04:03:53;;;;;;;9.93;2.15;;;10.50;99.90;;;;;;5064019;28;20040;-66
2022/09/17 04:06:19;;;;;;;10.73;2.10;;;10.40;99.90;;;;;;5055497;28;20120;-65
2022/09/17 04:08:45;;;;;;;11.68;2.22;;;10.50;99.90;;;;;;5068092;28;20074;-65
2022/09/17 04:11:12;;;;;;;15.50;2.95;;;10.60;99.90;;;;;;5067215;28;20102;-65
2022/09/17 04:13:38;;;;;;;12.80;2.63;;;10.50;99.90;;;;;;5061054;28;20126;-65
2022/09/17 04:16:03;;;;;;;12.15;2.38;;;10.40;99.90;;;;;;5056957;28;20087;-65
2022/09/17 04:18:29;;;;;;;11.73;2.00;;;10.40;99.90;;;;;;5056122;28;20044;-65
2022/09/17 04:20:55;;;;;;;12.45;2.17;;;10.40;99.90;;;;;;5059588;28;20131;-66
2022/09/17 04:23:22;;;;;;;12.32;2.30;;;10.30;99.90;;;;;;5051170;28;20037;-66
2022/09/17 04:25:48;;;;;;;13.57;2.40;;;10.30;99.90;;;;;;5064812;28;20049;-66
2022/09/17 04:28:13;;;;;;;12.77;2.53;;;10.70;99.90;;;;;;5049411;28;20047;-65
2022/09/17 04:30:41;;;;;;;14.18;2.40;;;10.30;99.90;;;;;;5062575;28;20126;-65
2022/09/17 04:33:07;;;;;;;10.07;2.28;;;10.10;99.90;;;;;;5053281;28;20067;-65
2022/09/17 04:35:33;;;;;;;12.70;2.72;;;10.10;99.90;;;;;;5058765;28;20391;-65
2022/09/17 04:37:59;;;;;;;14.00;2.47;;;10.00;99.90;;;;;;5056338;28;20044;-65
2022/09/17 04:40:25;;;;;;;16.63;2.67;;;9.90;99.90;;;;;;5054855;28;20057;-66
2022/09/17 04:42:56;;;;;;;13.30;2.47;;;9.90;99.90;;;;;;5059459;28;20049;-66
2022/09/17 04:45:22;;;;;;;17.08;2.58;;;10.00;99.90;;;;;;5050979;28;20055;-66
2022/09/17 04:47:49;;;;;;;16.98;2.97;;;10.30;99.90;;;;;;5065090;28;20048;-65
2022/09/17 04:50:19;;;;;;;16.42;2.80;;;10.60;99.90;;;;;;5049542;28;20047;-66
2022/09/17 04:52:45;;;;;;;14.52;2.40;;;10.20;99.90;;;;;;5061870;28;20395;-65
2022/09/17 04:55:13;;;;;;;12.13;2.60;;;10.30;99.90;;;;;;5053578;28;20206;-66
2022/09/17 04:57:38;;;;;;;9.43;2.15;;;10.40;99.90;;;;;;5057699;28;20541;-64
2022/09/17 05:00:09;;;;;;;15.65;2.50;;;10.50;99.90;;;;;;5057892;28;20084;-65
2022/09/17 05:02:35;;;;;;;13.70;3.00;;;10.50;99.90;;;;;;5052745;28;20120;-65
2022/09/17 05:05:00;;;;;;;9.40;2.03;;;10.50;99.90;;;;;;5061340;28;20466;-65
2022/09/17 05:07:26;;;;;;;16.40;2.67;;;10.60;99.90;;;;;;5060212;28;20056;-64
2022/09/17 05:09:52;;;;;;;13.70;2.30;;;10.40;99.90;;;;;;5050001;28;20541;-66
2022/09/17 05:12:18;;;;;;;12.80;2.45;;;10.40;99.90;;;;;;5067424;28;20045;-65
2022/09/17 05:14:44;;;;;;;13.50;2.28;;;10.30;99.90;;;;;;5060196;28;20132;-65
2022/09/17 05:17:10;;;;;;;11.70;2.30;;;10.20;99.90;;;;;;5054970;28;20120;-65
2022/09/17 05:19:35;;;;;;;13.50;2.50;;;10.20;99.90;;;;;;5056008;28;20077;-65
2022/09/17 05:22:01;;;;;;;7.65;1.98;;;10.20;99.90;;;;;;5058386;28;20036;-65
2022/09/17 05:24:27;;;;;;;16.35;2.83;;;10.10;99.90;;;;;;5051068;28;20175;-65
2022/09/17 05:26:53;;;;;;;13.82;2.90;;;10.10;99.90;;;;;;5062644;28;20103;-64
2022/09/17 05:29:18;;;;;;;10.07;2.10;;;10.10;99.90;;;;;;5046852;28;20116;-65
2022/09/17 05:31:44;;;;;;;10.82;2.40;;;10.30;99.90;;;;;;5062856;28;20045;-65
2022/09/17 05:34:10;;;;;;;13.82;3.05;;;10.50;99.90;;;;;;5051562;28;20053;-65
2022/09/17 05:36:35;;;;;;;14.07;2.40;;;10.30;99.90;;;;;;5059881;28;20379;-65
2022/09/17 05:39:01;;;;;;;16.20;2.50;;;10.30;99.90;;;;;;5054896;28;20047;-65
2022/09/17 05:41:26;;;;;;;12.88;2.33;;;10.30;99.90;;;;;;5056379;28;20479;-65
2022/09/17 05:43:52;;;;;;;12.25;3.38;;;10.20;99.90;;;;;;5059256;28;20123;-64
2022/09/17 05:46:18;;;;;;;11.07;2.58;;;10.10;99.90;;;;;;5050836;28;20045;-65
2022/09/17 05:48:43;;;;;;;12.85;2.88;;;9.90;99.90;;;;;;5062957;28;20423;-65
2022/09/17 05:51:09;;;;;;;15.45;2.72;;;10.10;99.90;;;;;;5047630;28;20048;-65
2022/09/17 05:53:35;;;;;;;11.45;2.55;;;9.80;99.90;;;;;;5062946;28;20044;-65
2022/09/17 05:56:00;;;;;;;15.75;2.88;;;9.70;99.90;;;;;;5050955;28;20056;-65
2022/09/17 05:58:26;;;;;;;16.95;3.47;;;9.80;99.90;;;;;;5060052;28;20044;-65
2022/09/17 06:00:52;;;;;;;14.40;2.92;;;9.80;99.90;;;;;;5055386;28;20045;-65
2022/09/17 06:03:21;;;;;;;12.60;2.38;;;9.90;99.90;;;;;;5056922;28;20040;-65
2022/09/17 06:05:57;;;;;;;14.57;2.58;;;10.00;99.90;;;;;;5052243;28;20127;-65
2022/09/17 06:08:24;;;;;;;14.27;3.10;;;10.10;99.90;;;;;;5059945;28;20080;-65
2022/09/17 06:10:50;;;;;;;13.75;2.92;;;10.10;99.90;;;;;;5066284;28;20099;-65
2022/09/17 06:13:17;;;;;;;13.40;2.53;;;10.20;99.90;;;;;;5064366;28;20412;-65
2022/09/17 06:15:48;;;;;;;11.88;2.25;;;10.40;99.90;;;;;;5051035;28;20407;-65
2022/09/17 06:18:13;;;;;;;14.10;2.47;;;10.40;99.90;;;;;;5059419;28;20037;-64
2022/09/17 06:20:39;;;;;;;11.07;1.98;;;10.30;99.90;;;;;;5055145;28;20044;-65
2022/09/17 06:23:04;;;;;;;13.05;2.55;;;10.10;99.90;;;;;;5054940;28;20033;-65
2022/09/17 06:25:30;;;;;;;14.00;2.72;;;10.30;99.90;;;;;;5059483;28;20051;-65
2022/09/17 06:27:56;;;;;;;14.32;2.30;;;10.40;99.90;;;;;;5050778;28;20037;-66
2022/09/17 06:30:21;;;;;;;9.43;2.08;;;10.40;99.90;;;;;;5063393;28;20076;-65
2022/09/17 06:32:47;;;;;;;13.05;2.67;;;10.60;99.90;;;;;;5048637;28;20044;-65
2022/09/17 06:35:13;;;;;;;14.00;2.22;;;10.80;99.90;;;;;;5063214;28;20475;-65
2022/09/17 06:37:39;;;;;;;12.65;2.53;;;11.00;99.90;;;;;;5050876;28;20537;-65
2022/09/17 06:40:06;;;;;;;11.57;2.65;;;11.30;99.90;;;;;;5058893;28;20045;-64
2022/09/17 06:42:32;;;;;;;16.85;2.72;;;11.20;99.90;;;;;;5057640;28;20480;-64
2022/09/17 06:44:57;;;;;;;11.10;2.20;;;11.10;99.90;;;;;;5057053;28;20048;-65
2022/09/17 06:47:24;;;;;;;13.70;2.85;;;11.10;99.90;;;;;;5062762;28;20040;-64
2022/09/17 06:49:50;;;;;;;15.93;2.50;;;11.10;99.90;;;;;;5053341;28;20052;-65
2022/09/17 06:52:16;;;;;;;14.77;2.67;;;11.30;99.90;;;;;;5066528;28;20051;-65
2022/09/17 06:54:41;;;;;;;12.52;2.78;;;11.00;99.90;;;;;;5050800;28;20041;-65
2022/09/17 06:57:07;;;;;;;9.73;2.40;;;11.10;99.90;;;;;;5065854;28;20037;-65
2022/09/17 06:59:32;;;;;;;13.35;2.00;;;11.10;99.90;;;;;;5055170;28;20056;-65
2022/09/17 07:01:58;;;;;;;15.77;2.42;;;11.00;99.90;;;;;;5062052;28;20025;-65
2022/09/17 07:04:24;;;;;;;12.38;2.70;;;11.00;99.90;;;;;;5059087;28;20642;-65
2022/09/17 07:06:49;;;;;;;12.55;2.83;;;11.10;99.90;;;;;;5064614;28;20128;-65
2022/09/17 07:09:15;;;;;;;10.98;2.15;;;11.30;99.90;;;;;;5063091;28;20048;-65
2022/09/17 07:11:41;;;;;;;12.95;2.28;;;11.30;99.90;;;;;;5068975;28;20060;-64
2022/09/17 07:14:06;;;;;;;11.10;1.80;;;11.30;99.90;;;;;;5050358;28;20896;-64
2022/09/17 07:16:34;;;;;;;7.63;1.80;;;11.30;99.90;;;;;;5067459;28;20465;-65
2022/09/17 07:19:01;;;;;;;11.98;1.90;;;11.30;99.90;;;;;;5052014;28;20406;-65
2022/09/17 07:21:27;;;;;;;12.10;2.03;;;11.30;99.90;;;;;;5062373;28;20080;-65
2022/09/17 07:23:53;;;;;;;11.93;2.58;;;11.40;99.90;;;;;;5057436;28;20498;-64
2022/09/17 07:26:18;;;;;;;11.50;2.20;;;11.40;99.90;;;;;;5059075;28;20054;-64
2022/09/17 07:28:44;;;;;;;13.82;2.15;;;11.50;99.90;;;;;;5060503;28;20075;-65
2022/09/17 07:31:10;;;;;;;13.40;2.22;;;11.50;99.90;;;;;;5055086;28;20053;-65
2022/09/17 07:33:37;;;;;;;10.95;2.50;;;11.60;99.90;;;;;;5064373;28;20352;-66
2022/09/17 07:36:09;;;;;;;13.40;2.38;;;11.70;99.90;;;;;;5050295;28;20124;-66
2022/09/17 07:38:34;;;;;;;8.68;2.15;;;11.80;99.90;;;;;;5063834;28;20047;-65
2022/09/17 07:41:03;;;;;;;12.38;2.10;;;12.00;99.90;;;;;;5053948;28;20052;-65
2022/09/17 07:43:31;;;;;;;11.25;2.40;;;12.30;99.90;;;;;;5061108;28;20376;-65
2022/09/17 07:45:58;;;;;;;14.63;2.30;;;12.50;99.90;;;;;;5058301;28;20118;-65
2022/09/17 07:48:24;;;;;;;11.07;2.00;;;12.50;99.90;;;;;;5056570;28;20429;-65
2022/09/17 07:50:50;;;;;;;15.60;2.15;;;12.50;99.90;;;;;;5062377;28;20040;-65
2022/09/17 07:53:16;;;;;;;9.98;2.03;;;12.40;99.90;;;;;;5051225;28;20507;-65
2022/09/17 07:55:42;;;;;;;12.95;2.00;;;12.50;99.90;;;;;;5066205;28;20113;-66
2022/09/17 07:58:08;;;;;;;13.82;3.03;;;12.50;99.90;;;;;;5048806;28;20614;-66
2022/09/17 08:00:33;;;;;;;15.13;2.88;;;12.50;99.90;;;;;;5052779;28;20089;-66
2022/09/17 08:02:59;;;;;;;12.75;2.30;;;12.70;99.90;;;;;;5062277;28;20085;-66
2022/09/17 08:05:25;;;;;;;10.13;2.15;;;12.90;99.90;;;;;;5056235;28;20056;-66
2022/09/17 08:07:52;;;;;;;8.93;2.25;;;13.00;99.90;;;;;;5066157;28;20052;-66
2022/09/17 08:10:21;;;;;;;12.95;2.30;;;13.10;99.90;;;;;;5067807;28;20533;-65
2022/09/17 08:12:48;;;;;;;9.77;1.88;;;12.80;99.90;;;;;;5067965;28;20105;-65
2022/09/17 08:15:15;;;;;;;7.53;1.50;;;12.40;99.90;;;;;;5050430;28;20045;-65
2022/09/17 08:17:47;;;;;;;6.80;1.20;;;11.90;99.90;;;;;;5065662;28;20044;-64
2022/09/17 08:20:14;;;;;;;6.55;1.20;;;11.60;99.90;;;;;;5045629;28;20482;-64
2022/09/17 08:22:40;;;;;;;8.63;1.50;;;11.30;99.90;;;;;;5062790;28;20051;-64
2022/09/17 08:25:07;;;;;;;8.80;1.38;;;11.20;99.90;;;;;;5066674;28;20076;-64
2022/09/17 08:27:33;;;;;;;6.25;1.20;;;11.00;99.90;;;;;;5048468;28;20048;-65
2022/09/17 08:29:58;;;;;;;6.80;1.23;;;10.90;99.90;;;;;;5060072;28;20037;-64
2022/09/17 08:32:24;;;;;;;9.60;1.30;;;10.90;99.90;;;;;;5063396;28;20098;-65
2022/09/17 08:34:52;;;;;;;9.07;1.33;;;11.10;99.90;;;;;;5053201;28;20037;-65
2022/09/17 08:37:18;;;;;;;5.93;1.40;;;11.30;99.90;;;;;;5058321;28;20076;-64
2022/09/17 08:39:44;;;;;;;5.40;1.17;;;11.50;99.90;;;;;;5064758;28;20122;-64
2022/09/17 08:42:36;;;;;;;8.98;1.48;;;11.60;99.90;;;;;;5081977;28;20572;-64
2022/09/17 08:45:05;;;;;;;6.75;1.30;;;11.60;99.90;;;;;;5055497;28;20049;-64
2022/09/17 08:47:37;;;;;;;8.05;1.45;;;11.80;99.90;;;;;;5059310;28;20047;-64
2022/09/17 08:50:26;;;;;;;7.68;1.55;;;12.10;99.90;;;;;;5050220;28;20056;-64
2022/09/17 08:53:41;;;;;;;10.10;1.55;;;12.30;99.90;;;;;;5050571;28;20032;-64
2022/09/17 08:56:14;;;;;;;12.50;1.95;;;12.60;99.90;;;;;;5010527;28;20140;-65
2022/09/17 08:58:51;;;;;;;8.77;1.48;;;13.10;99.90;;;;;;5061390;28;20041;-65
2022/09/17 09:01:41;;;;;;;12.40;1.60;;;13.70;99.90;;;;;;5065789;28;20055;-64
2022/09/17 09:04:32;;;;;;;11.10;1.70;;;14.20;99.90;;;;;;5050745;28;20059;-64
2022/09/17 09:07:05;;;;;;;12.10;2.10;;;14.70;99.90;;;;;;5058278;28;20094;-64
2022/09/17 09:09:42;;;;;;;12.68;2.30;;;15.20;99.90;;;;;;5060076;28;20127;-64
2022/09/17 09:12:24;;;;;;;11.38;2.10;;;15.60;99.90;;;;;;5064943;28;20055;-64
2022/09/17 09:14:58;;;;;;;14.77;2.30;;;16.00;99.90;;;;;;5049394;28;20040;-64
2022/09/17 09:17:31;;;;;;;13.55;2.58;;;16.10;99.90;;;;;;5066313;28;20483;-64
2022/09/17 09:19:57;;;;;;;8.55;1.50;;;15.50;99.90;;;;;;5065725;28;20083;-63
2022/09/17 09:22:31;;;;;;;6.10;1.52;;;15.00;99.90;;;;;;5065769;28;20071;-66
2022/09/17 09:25:22;;;;;;;8.32;1.58;;;14.80;99.90;;;;;;5065765;28;20398;-64
2022/09/17 09:28:02;;;;;;;5.43;1.20;;;15.00;99.90;;;;;;5048624;28;20171;-62
2022/09/17 09:30:59;;;;;;;7.22;1.80;;;14.90;99.90;;;;;;5065864;28;20037;-61
2022/09/17 09:33:32;;;;;;;8.05;2.00;;;14.90;99.90;;;;;;5052802;28;20048;-62
2022/09/17 09:35:58;;;;;;;8.10;1.77;;;15.00;99.90;;;;;;5061411;28;20067;-63
2022/09/17 09:38:41;;;;;;;12.65;2.60;;;15.40;99.90;;;;;;5046916;28;20112;-65
2022/09/17 09:41:54;;;;;;;9.70;1.98;;;15.40;99.90;;;;;;5061291;28;20048;-62
2022/09/17 09:44:22;;;;;;;9.85;1.88;;;15.60;99.90;;;;;;5059101;28;20041;-61
2022/09/17 09:47:03;;;;;;;7.97;1.90;;;15.90;99.90;;;;;;5050134;28;20041;-63
2022/09/17 09:49:35;;;;;;;6.88;1.23;;;16.20;99.90;;;;;;5063918;28;20056;-62
2022/09/17 09:52:22;;;;;;;8.57;1.42;;;15.90;99.90;;;;;;5049847;28;20040;-63
2022/09/17 09:54:51;;;;;;;7.18;1.95;;;15.80;99.90;;;;;;5057457;28;20399;-62
2022/09/17 09:57:23;;;;;;;7.63;1.40;;;15.30;99.90;;;;;;5057636;28;20119;-60
2022/09/17 09:59:49;;;;;;;14.00;1.70;;;15.10;99.90;;;;;;5050445;28;20041;-57
2022/09/17 10:02:15;;;;;;;11.85;2.20;;;14.90;99.90;;;;;;5062884;28;20043;-57
2022/09/17 10:04:41;;;;;;;10.38;2.00;;;15.10;99.90;;;;;;5046741;28;20081;-57
2022/09/17 10:07:10;;;;;;;9.88;1.77;;;15.10;99.90;;;;;;5058520;28;20124;-57
2022/09/17 10:09:44;;;;;;;9.68;2.05;;;15.00;99.90;;;;;;5065961;28;20449;-56
2022/09/17 10:12:10;;;;;;;8.48;1.88;;;14.90;99.90;;;;;;5064396;28;20048;-56
2022/09/17 10:14:40;;;;;;;8.98;2.22;;;15.20;99.90;;;;;;5056108;28;20087;-57
2022/09/17 10:17:25;;;;;;;13.57;2.47;;;15.50;99.90;;;;;;5060521;28;20447;-56
2022/09/17 10:20:10;;;;;;;11.02;2.53;;;16.10;99.90;;;;;;5053022;28;20395;-57
2022/09/17 10:22:36;;;;;;;11.65;3.10;;;16.40;99.90;;;;;;5054390;28;20052;-57
2022/09/17 10:25:04;;;;;;;11.10;2.10;;;16.60;99.90;;;;;;5069628;28;20052;-56
2022/09/17 10:27:30;;;;;;;10.98;1.80;;;17.10;99.90;;;;;;5060925;28;20045;-57
2022/09/17 10:30:08;;;;;;;9.70;2.13;;;17.20;99.90;;;;;;5060696;28;20105;-57
2022/09/17 10:32:34;;;;;;;11.45;2.40;;;17.40;99.90;;;;;;5055545;28;20045;-56
2022/09/17 10:35:14;;;;;;;8.60;1.83;;;17.60;99.90;;;;;;5065428;28;20081;-55
2022/09/17 10:37:52;;;;;;;9.13;1.98;;;17.30;99.90;;;;;;5066958;28;20110;-56
2022/09/17 10:40:18;;;;;;;10.20;2.05;;;17.50;99.90;;;;;;5069303;28;20072;-55
2022/09/17 10:42:48;;;;;;;12.95;1.85;;;17.70;99.90;;;;;;5061204;28;20084;-56
2022/09/17 10:45:28;;;;;;;9.18;1.88;;;17.40;99.90;;;;;;5058500;28;20049;-55
2022/09/17 10:47:56;;;;;;;6.60;1.48;;;16.60;99.90;;;;;;5054174;28;20047;-58
2022/09/17 10:50:27;;;;;;;7.03;1.60;;;15.90;99.90;;;;;;5065833;28;20101;-56
2022/09/17 10:52:56;;;;;;;8.88;1.35;;;15.40;99.90;;;;;;5050716;28;20441;-57
2022/09/17 10:55:32;;;;;;;6.85;1.40;;;15.30;99.90;;;;;;5069017;28;20044;-57
2022/09/17 10:58:06;;;;;;;7.93;1.90;;;15.60;99.90;;;;;;5068043;28;20742;-57
2022/09/17 11:01:01;;;;;;;10.13;1.90;;;16.10;99.90;;;;;;5058645;28;20111;-57
2022/09/17 11:03:58;;;;;;;8.48;1.63;;;16.60;99.90;;;;;;5049964;28;20423;-63
2022/09/17 11:06:48;;;;;;;8.82;1.60;;;16.90;99.90;;;;;;5056382;28;20079;-65
2022/09/17 11:09:46;;;;;;;8.88;1.58;;;16.80;99.90;;;;;;5057823;28;20052;-63
2022/09/17 11:12:12;;;;;;;8.35;1.90;;;16.70;99.90;;;;;;5068467;28;20088;-63
2022/09/17 11:14:53;;;;;;;9.73;2.15;;;16.40;99.90;;;;;;5051047;28;20403;-63
2022/09/17 11:17:48;;;;;;;13.45;1.70;;;16.60;99.90;;;;;;5062948;28;20061;-63
2022/09/17 11:21:08;;;;;;;9.38;1.73;;;16.90;99.90;;;;;;5058800;28;20105;-64
2022/09/17 11:24:14;;;;;;;12.57;1.90;;;17.40;99.90;;;;;;5045981;28;20047;-63
2022/09/17 11:27:01;;;;;;;7.63;2.03;;;17.50;99.90;;;;;;5047448;28;20049;-65
2022/09/17 11:29:55;;;;;;;7.70;1.80;;;17.70;99.90;;;;;;5052153;28;20051;-63
2022/09/17 11:32:50;;;;;;;6.65;1.20;;;17.70;99.90;;;;;;5051679;28;20110;-63
2022/09/17 11:35:21;;;;;;;6.65;1.63;;;17.60;99.90;;;;;;5068002;28;20045;-63
2022/09/17 11:38:16;;;;;;;8.85;1.80;;;17.70;99.90;;;;;;5056235;28;20072;-63
2022/09/17 11:41:01;;;;;;;10.35;1.70;;;18.00;99.90;;;;;;5059780;28;20107;-63
2022/09/17 11:43:37;;;;;;;11.50;1.58;;;17.70;99.90;;;;;;5051893;28;20056;-62
2022/09/17 11:46:06;;;;;;;9.10;1.42;;;18.10;99.90;;;;;;5067158;28;20040;-63
2022/09/17 11:49:03;;;;;;;7.38;1.50;;;17.60;99.90;;;;;;5058028;28;20051;-63
2022/09/17 11:51:31;;;;;;;7.90;1.67;;;17.50;99.90;;;;;;5064248;28;20093;-63
2022/09/17 11:53:57;;;;;;;6.50;1.40;;;17.70;99.90;;;;;;5050016;28;20052;-64
2022/09/17 11:56:40;;;;;;;9.75;1.88;;;17.90;99.90;;;;;;5066010;28;20048;-66
2022/09/17 11:59:33;;;;;;;9.82;1.63;;;17.50;99.90;;;;;;5055248;28;20107;-62
2022/09/17 12:02:17;;;;;;;8.50;1.40;;;17.30;99.90;;;;;;5054806;28;20569;-63
2022/09/17 12:04:58;;;;;;;9.80;1.77;;;16.60;99.90;;;;;;5064051;28;20083;-64
2022/09/17 12:07:44;;;;;;;6.45;1.40;;;16.40;99.90;;;;;;5057358;28;20051;-63
2022/09/17 12:10:16;;;;;;;7.90;1.30;;;16.10;99.90;;;;;;5067875;28;20037;-62
2022/09/17 12:12:50;;;;;;;7.95;1.58;;;16.30;99.90;;;;;;5056485;28;20057;-63
2022/09/17 12:15:21;;;;;;;;;;;16.70;99.90;;;;;;5062825;28;20074;-62
2022/09/17 12:17:54;;;;;;;9.68;1.50;;;16.80;99.90;;;;;;5050705;28;19928;-64
2022/09/17 12:20:32;;;;;;;11.85;1.58;;;16.90;99.90;;;;;;5049893;28;20102;-63
2022/09/17 12:23:03;;;;;;;8.25;1.48;;;16.90;99.90;;;;;;5067830;28;20494;-63
2022/09/17 12:25:56;;;;;;;9.73;1.85;;;17.20;99.90;;;;;;5058863;28;20131;-62
2022/09/17 12:28:31;;;;;;;10.60;1.90;;;17.20;99.90;;;;;;5062172;28;20044;-63
2022/09/17 12:31:32;;;;;;;10.55;2.08;;;17.50;99.90;;;;;;5050299;28;20091;-64
2022/09/17 12:34:24;;;;;;;9.50;1.55;;;17.70;99.90;;;;;;5049819;28;20058;-64
2022/09/17 12:37:09;;;;;;;8.80;1.70;;;17.60;99.90;;;;;;5055220;28;20060;-62
2022/09/17 12:40:14;;;;;;;11.82;1.67;;;17.10;99.90;;;;;;5050361;28;20067;-64
2022/09/17 12:42:53;;;;;;;7.68;1.58;;;16.70;99.90;;;;;;5032144;28;20387;-62
2022/09/17 12:45:27;;;;;;;8.27;1.65;;;16.90;99.90;;;;;;5067360;28;20083;-63
2022/09/17 12:48:07;;;;;;;7.95;1.80;;;16.50;99.90;;;;;;5052405;28;20041;-63
2022/09/17 12:50:51;;;;;;;11.18;2.00;;;16.60;99.90;;;;;;5057910;28;20084;-63
2022/09/17 12:53:22;;;;;;;9.25;1.60;;;16.80;99.90;;;;;;5062574;28;20127;-63
2022/09/17 12:56:10;;;;;;;8.20;1.83;;;17.00;99.90;;;;;;5066765;28;20037;-62
2022/09/17 12:58:47;;;;;;;8.52;1.83;;;16.70;99.90;;;;;;5057885;28;20124;-63
2022/09/17 13:01:45;;;;;;;8.18;1.58;;;17.00;99.90;;;;;;5066586;28;20045;-62
2022/09/17 13:04:39;;;;;;;8.77;1.65;;;16.50;99.90;;;;;;5050733;28;20059;-62
2022/09/17 13:08:03;;;;;;;9.63;1.70;;;16.20;99.90;;;;;;5059797;28;20128;-64
2022/09/17 13:10:53;;;;;;;7.80;1.60;;;16.10;99.90;;;;;;4984036;28;20046;-62